sensor_id;sensor_type;location;lat;lon;timestamp;pressure;altitude;pressure_sealevel;temperature;humidity
43217;BME280;71549;42.686;23.300;2023-08-07T00:00:01;94188.06;;;29.13;30.77
43217;BME280;71549;42.686;23.300;2023-08-07T00:02:02;94168.69;;;28.97;31.26
43217;BME280;71549;42.686;23.300;2023-08-07T00:04:04;94170.19;;;29.09;31.13
43217;BME280;71549;42.686;23.300;2023-08-07T00:06:04;94179.47;;;29.18;31.15
43217;BME280;71549;42.686;23.300;2023-08-07T00:08:05;94176.31;;;29.23;30.88
43217;BME280;71549;42.686;23.300;2023-08-07T00:10:06;94156.56;;;29.09;31.00
43217;BME280;71549;42.686;23.300;2023-08-07T00:12:07;94171.31;;;29.18;30.98
43217;BME280;71549;42.686;23.300;2023-08-07T00:14:08;94180.59;;;29.28;30.86
43217;BME280;71549;42.686;23.300;2023-08-07T00:16:08;94185.63;;;29.30;30.90
43217;BME280;71549;42.686;23.300;2023-08-07T00:18:10;94187.94;;;29.31;30.71
43217;BME280;71549;42.686;23.300;2023-08-07T00:20:11;94185.97;;;29.32;30.75
43217;BME280;71549;42.686;23.300;2023-08-07T00:22:11;94174.75;;;29.26;30.42
43217;BME280;71549;42.686;23.300;2023-08-07T00:24:12;94190.28;;;29.33;30.38
43217;BME280;71549;42.686;23.300;2023-08-07T00:26:12;94183.69;;;29.27;30.60
43217;BME280;71549;42.686;23.300;2023-08-07T00:28:13;94191.06;;;29.30;30.64
43217;BME280;71549;42.686;23.300;2023-08-07T00:30:13;94158.13;;;29.10;30.56
43217;BME280;71549;42.686;23.300;2023-08-07T00:32:14;94172.09;;;29.15;30.63
43217;BME280;71549;42.686;23.300;2023-08-07T00:34:15;94188.78;;;29.24;30.15
43217;BME280;71549;42.686;23.300;2023-08-07T00:36:15;94167.06;;;29.10;30.54
43217;BME280;71549;42.686;23.300;2023-08-07T00:38:16;94177.97;;;29.07;30.83
43217;BME280;71549;42.686;23.300;2023-08-07T00:40:17;94188.09;;;29.10;30.61
43217;BME280;71549;42.686;23.300;2023-08-07T00:42:17;94158.22;;;28.95;30.31
43217;BME280;71549;42.686;23.300;2023-08-07T00:44:19;94182.63;;;29.13;30.35
43217;BME280;71549;42.686;23.300;2023-08-07T00:46:19;94193.47;;;29.20;30.36
43217;BME280;71549;42.686;23.300;2023-08-07T00:48:20;94165.13;;;29.07;30.64
43217;BME280;71549;42.686;23.300;2023-08-07T00:50:21;94197.31;;;29.27;30.52
43217;BME280;71549;42.686;23.300;2023-08-07T00:52:22;94188.00;;;29.24;30.70
43217;BME280;71549;42.686;23.300;2023-08-07T00:54:22;94191.91;;;29.19;30.42
43217;BME280;71549;42.686;23.300;2023-08-07T00:56:25;94183.41;;;29.10;30.57
43217;BME280;71549;42.686;23.300;2023-08-07T00:58:26;94206.66;;;29.29;30.74
43217;BME280;71549;42.686;23.300;2023-08-07T01:00:29;94187.31;;;29.13;30.36
43217;BME280;71549;42.686;23.300;2023-08-07T01:02:33;94207.84;;;29.28;30.48
43217;BME280;71549;42.686;23.300;2023-08-07T01:04:33;94208.59;;;29.29;30.71
43217;BME280;71549;42.686;23.300;2023-08-07T01:06:34;94206.72;;;29.18;30.85
43217;BME280;71549;42.686;23.300;2023-08-07T01:08:35;94200.53;;;29.14;30.51
43217;BME280;71549;42.686;23.300;2023-08-07T01:13:28;94230.81;;;29.27;30.91
43217;BME280;71549;42.686;23.300;2023-08-07T01:15:30;94199.78;;;29.07;30.93
43217;BME280;71549;42.686;23.300;2023-08-07T01:17:32;94202.94;;;29.01;30.99
43217;BME280;71549;42.686;23.300;2023-08-07T01:19:35;94226.63;;;29.08;30.85
43217;BME280;71549;42.686;23.300;2023-08-07T01:21:36;94237.53;;;29.12;30.90
43217;BME280;71549;42.686;23.300;2023-08-07T01:23:37;94237.53;;;29.08;30.63
43217;BME280;71549;42.686;23.300;2023-08-07T01:25:38;94228.22;;;28.98;30.94
43217;BME280;71549;42.686;23.300;2023-08-07T01:28:10;94231.31;;;29.04;30.89
43217;BME280;71549;42.686;23.300;2023-08-07T01:30:19;94230.19;;;29.01;30.56
43217;BME280;71549;42.686;23.300;2023-08-07T01:34:34;94200.69;;;28.82;30.50
43217;BME280;71549;42.686;23.300;2023-08-07T01:36:34;94225.13;;;29.00;30.98
43217;BME280;71549;42.686;23.300;2023-08-07T01:38:36;94223.97;;;28.97;30.69
43217;BME280;71549;42.686;23.300;2023-08-07T01:40:38;94224.00;;;28.94;30.90
43217;BME280;71549;42.686;23.300;2023-08-07T01:42:39;94221.28;;;28.90;30.52
43217;BME280;71549;42.686;23.300;2023-08-07T01:44:40;94163.91;;;28.52;31.05
43217;BME280;71549;42.686;23.300;2023-08-07T01:46:40;94202.69;;;28.74;30.98
43217;BME280;71549;42.686;23.300;2023-08-07T01:48:41;94229.44;;;28.94;30.70
43217;BME280;71549;42.686;23.300;2023-08-07T01:50:41;94203.44;;;28.75;30.57
43217;BME280;71549;42.686;23.300;2023-08-07T01:52:42;94202.69;;;28.71;30.59
43217;BME280;71549;42.686;23.300;2023-08-07T01:54:42;94225.97;;;28.90;31.01
43217;BME280;71549;42.686;23.300;2023-08-07T01:56:43;94196.47;;;28.70;30.58
43217;BME280;71549;42.686;23.300;2023-08-07T01:58:43;94222.88;;;28.80;30.80
43217;BME280;71549;42.686;23.300;2023-08-07T02:00:43;94229.47;;;28.87;30.95
43217;BME280;71549;42.686;23.300;2023-08-07T02:02:44;94222.88;;;28.80;30.95
43217;BME280;71549;42.686;23.300;2023-08-07T02:04:47;94232.56;;;28.85;30.89
43217;BME280;71549;42.686;23.300;2023-08-07T02:06:47;94230.28;;;28.83;31.17
43217;BME280;71549;42.686;23.300;2023-08-07T02:08:48;94224.84;;;28.76;31.09
43217;BME280;71549;42.686;23.300;2023-08-07T02:10:49;94237.66;;;28.83;31.19
43217;BME280;71549;42.686;23.300;2023-08-07T02:12:49;94221.78;;;28.67;31.25
43217;BME280;71549;42.686;23.300;2023-08-07T02:14:50;94238.06;;;28.78;30.71
43217;BME280;71549;42.686;23.300;2023-08-07T02:16:50;94242.34;;;28.79;31.11
43217;BME280;71549;42.686;23.300;2023-08-07T02:18:51;94243.53;;;28.78;31.15
43217;BME280;71549;42.686;23.300;2023-08-07T02:20:51;94162.84;;;28.24;31.16
43217;BME280;71549;42.686;23.300;2023-08-07T02:22:52;94254.41;;;28.78;31.28
43217;BME280;71549;42.686;23.300;2023-08-07T02:24:52;94244.34;;;28.71;31.12
43217;BME280;71549;42.686;23.300;2023-08-07T02:26:53;94254.81;;;28.76;31.19
43217;BME280;71549;42.686;23.300;2023-08-07T02:28:53;94252.09;;;28.76;30.99
43217;BME280;71549;42.686;23.300;2023-08-07T02:30:54;94258.72;;;28.75;30.93
43217;BME280;71549;42.686;23.300;2023-08-07T02:32:54;94238.53;;;28.62;31.04
43217;BME280;71549;42.686;23.300;2023-08-07T02:34:55;94254.44;;;28.71;31.00
43217;BME280;71549;42.686;23.300;2023-08-07T02:36:55;94257.16;;;28.74;31.07
43217;BME280;71549;42.686;23.300;2023-08-07T02:38:56;94232.72;;;28.60;30.90
43217;BME280;71549;42.686;23.300;2023-08-07T02:40:56;94259.50;;;28.72;31.42
43217;BME280;71549;42.686;23.300;2023-08-07T02:42:56;94251.31;;;28.72;30.96
43217;BME280;71549;42.686;23.300;2023-08-07T02:44:57;94240.09;;;28.63;31.39
43217;BME280;71549;42.686;23.300;2023-08-07T02:46:57;94254.44;;;28.71;30.92
43217;BME280;71549;42.686;23.300;2023-08-07T02:48:58;94263.03;;;28.69;31.25
43217;BME280;71549;42.686;23.300;2023-08-07T02:50:58;94242.84;;;28.56;31.28
43217;BME280;71549;42.686;23.300;2023-08-07T02:53:00;94263.78;;;28.70;31.38
43217;BME280;71549;42.686;23.300;2023-08-07T02:55:01;94269.25;;;28.70;30.89
43217;BME280;71549;42.686;23.300;2023-08-07T02:57:01;94259.16;;;28.63;31.36
43217;BME280;71549;42.686;23.300;2023-08-07T02:59:01;94264.56;;;28.67;31.03
43217;BME280;71549;42.686;23.300;2023-08-07T03:01:05;94257.59;;;28.58;31.26
43217;BME280;71549;42.686;23.300;2023-08-07T03:03:06;94280.13;;;28.66;31.32
43217;BME280;71549;42.686;23.300;2023-08-07T03:05:07;94273.91;;;28.65;31.26
43217;BME280;71549;42.686;23.300;2023-08-07T03:07:07;94281.72;;;28.63;31.38
43217;BME280;71549;42.686;23.300;2023-08-07T03:09:08;94248.69;;;28.43;31.28
43217;BME280;71549;42.686;23.300;2023-08-07T03:11:08;94279.00;;;28.63;30.87
43217;BME280;71549;42.686;23.300;2023-08-07T03:13:09;94257.63;;;28.55;30.82
43217;BME280;71549;42.686;23.300;2023-08-07T03:15:09;94283.66;;;28.59;30.78
43217;BME280;71549;42.686;23.300;2023-08-07T03:17:10;94266.56;;;28.52;31.05
43217;BME280;71549;42.686;23.300;2023-08-07T03:19:10;94257.66;;;28.33;31.31
43217;BME280;71549;42.686;23.300;2023-08-07T03:21:11;94289.88;;;28.56;31.00
43217;BME280;71549;42.686;23.300;2023-08-07T03:23:11;94277.47;;;28.44;31.14
43217;BME280;71549;42.686;23.300;2023-08-07T03:25:12;94287.16;;;28.56;31.06
43217;BME280;71549;42.686;23.300;2023-08-07T03:27:12;94275.91;;;28.47;31.21
43217;BME280;71549;42.686;23.300;2023-08-07T03:29:13;94282.53;;;28.50;30.97
43217;BME280;71549;42.686;23.300;2023-08-07T03:31:14;94296.13;;;28.53;31.01
43217;BME280;71549;42.686;23.300;2023-08-07T03:33:14;94293.41;;;28.50;31.03
43217;BME280;71549;42.686;23.300;2023-08-07T03:35:15;94278.28;;;28.34;31.03
43217;BME280;71549;42.686;23.300;2023-08-07T03:37:15;94310.53;;;28.54;31.11
43217;BME280;71549;42.686;23.300;2023-08-07T03:39:16;94312.09;;;28.55;31.27
43217;BME280;71549;42.686;23.300;2023-08-07T03:41:16;94295.75;;;28.37;31.13
43217;BME280;71549;42.686;23.300;2023-08-07T03:43:17;94324.13;;;28.54;30.98
43217;BME280;71549;42.686;23.300;2023-08-07T03:45:17;94320.25;;;28.55;31.41
43217;BME280;71549;42.686;23.300;2023-08-07T03:47:17;94323.75;;;28.52;31.36
43217;BME280;71549;42.686;23.300;2023-08-07T03:49:18;94330.34;;;28.54;31.54
43217;BME280;71549;42.686;23.300;2023-08-07T03:51:18;94311.72;;;28.35;31.21
43217;BME280;71549;42.686;23.300;2023-08-07T03:53:19;94315.59;;;28.41;31.51
43217;BME280;71549;42.686;23.300;2023-08-07T03:55:19;94334.25;;;28.53;31.31
43217;BME280;71549;42.686;23.300;2023-08-07T03:57:20;94345.16;;;28.53;31.41
43217;BME280;71549;42.686;23.300;2023-08-07T03:59:20;94340.84;;;28.52;30.88
43217;BME280;71549;42.686;23.300;2023-08-07T04:01:20;94314.03;;;28.33;31.09
43217;BME280;71549;42.686;23.300;2023-08-07T04:03:21;94342.81;;;28.52;31.24
43217;BME280;71549;42.686;23.300;2023-08-07T04:05:22;94348.63;;;28.50;30.88
43217;BME280;71549;42.686;23.300;2023-08-07T04:07:22;94326.50;;;28.30;30.84
43217;BME280;71549;42.686;23.300;2023-08-07T04:09:23;94351.34;;;28.43;31.03
43217;BME280;71549;42.686;23.300;2023-08-07T04:11:23;94322.59;;;28.31;30.98
43217;BME280;71549;42.686;23.300;2023-08-07T04:13:23;94315.63;;;28.27;31.27
43217;BME280;71549;42.686;23.300;2023-08-07T04:15:24;94350.97;;;28.44;31.14
43217;BME280;71549;42.686;23.300;2023-08-07T04:17:24;94357.97;;;28.49;31.32
43217;BME280;71549;42.686;23.300;2023-08-07T04:19:25;94329.59;;;28.32;31.17
43217;BME280;71549;42.686;23.300;2023-08-07T04:21:25;94358.72;;;28.46;30.92
43217;BME280;71549;42.686;23.300;2023-08-07T04:23:26;94349.81;;;28.38;31.34
43217;BME280;71549;42.686;23.300;2023-08-07T04:25:26;94365.75;;;28.43;31.02
43217;BME280;71549;42.686;23.300;2023-08-07T04:27:27;94370.41;;;28.47;31.11
43217;BME280;71549;42.686;23.300;2023-08-07T04:29:27;94358.38;;;28.40;31.29
43217;BME280;71549;42.686;23.300;2023-08-07T04:31:28;94366.91;;;28.42;31.28
43217;BME280;71549;42.686;23.300;2023-08-07T04:33:31;94360.28;;;28.47;31.26
43217;BME280;71549;42.686;23.300;2023-08-07T04:35:31;94302.44;;;28.00;31.13
43217;BME280;71549;42.686;23.300;2023-08-07T04:37:31;94358.75;;;28.42;31.37
43217;BME280;71549;42.686;23.300;2023-08-07T04:39:32;94368.06;;;28.41;31.33
43217;BME280;71549;42.686;23.300;2023-08-07T04:41:33;94364.59;;;28.41;31.07
43217;BME280;71549;42.686;23.300;2023-08-07T04:43:33;94359.13;;;28.37;31.58
43217;BME280;71549;42.686;23.300;2023-08-07T04:45:33;94366.50;;;28.44;31.30
43217;BME280;71549;42.686;23.300;2023-08-07T04:47:34;94366.91;;;28.42;31.32
43217;BME280;71549;42.686;23.300;2023-08-07T04:49:34;94374.69;;;28.40;31.10
43217;BME280;71549;42.686;23.300;2023-08-07T04:51:35;94372.38;;;28.39;31.09
43217;BME280;71549;42.686;23.300;2023-08-07T04:53:36;94369.25;;;28.40;31.14
43217;BME280;71549;42.686;23.300;2023-08-07T04:55:36;94369.25;;;28.40;31.38
43217;BME280;71549;42.686;23.300;2023-08-07T04:57:37;94362.63;;;28.38;31.29
43217;BME280;71549;42.686;23.300;2023-08-07T04:59:37;94346.72;;;28.18;31.12
43217;BME280;71549;42.686;23.300;2023-08-07T05:01:38;94361.50;;;28.28;31.58
43217;BME280;71549;42.686;23.300;2023-08-07T05:03:38;94354.09;;;28.25;31.53
43217;BME280;71549;42.686;23.300;2023-08-07T05:05:39;94361.47;;;28.32;31.35
43217;BME280;71549;42.686;23.300;2023-08-07T05:07:39;94370.81;;;28.31;31.54
43217;BME280;71549;42.686;23.300;2023-08-07T05:09:40;94340.50;;;28.21;31.28
43217;BME280;71549;42.686;23.300;2023-08-07T05:11:40;94335.47;;;28.16;31.16
43217;BME280;71549;42.686;23.300;2023-08-07T05:13:41;94347.13;;;28.24;31.57
43217;BME280;71549;42.686;23.300;2023-08-07T05:15:41;94358.75;;;28.32;31.28
43217;BME280;71549;42.686;23.300;2023-08-07T05:17:42;94352.91;;;28.33;31.56
43217;BME280;71549;42.686;23.300;2023-08-07T05:19:43;94357.22;;;28.31;31.39
43217;BME280;71549;42.686;23.300;2023-08-07T05:21:45;94349.03;;;28.27;31.38
43217;BME280;71549;42.686;23.300;2023-08-07T05:23:50;94356.41;;;28.34;31.35
43217;BME280;71549;42.686;23.300;2023-08-07T05:25:53;94337.78;;;28.25;31.24
43217;BME280;71549;42.686;23.300;2023-08-07T05:27:53;94345.16;;;28.24;31.23
43217;BME280;71549;42.686;23.300;2023-08-07T05:29:54;94326.50;;;28.09;31.06
43217;BME280;71549;42.686;23.300;2023-08-07T05:31:54;94341.66;;;28.20;31.36
43217;BME280;71549;42.686;23.300;2023-08-07T05:33:55;94352.53;;;28.28;31.04
43217;BME280;71549;42.686;23.300;2023-08-07T05:35:56;94352.16;;;28.22;31.15
43217;BME280;71549;42.686;23.300;2023-08-07T05:37:57;94359.16;;;28.19;31.53
43217;BME280;71549;42.686;23.300;2023-08-07T05:39:57;94330.38;;;27.86;31.63
43217;BME280;71549;42.686;23.300;2023-08-07T05:41:57;94361.47;;;27.71;32.05
43217;BME280;71549;42.686;23.300;2023-08-07T05:43:58;94366.47;;;27.54;32.31
43217;BME280;71549;42.686;23.300;2023-08-07T05:45:58;94374.63;;;27.51;32.37
43217;BME280;71549;42.686;23.300;2023-08-07T05:47:59;94335.34;;;27.27;32.29
43217;BME280;71549;42.686;23.300;2023-08-07T05:50:00;94363.34;;;27.34;32.35
43217;BME280;71549;42.686;23.300;2023-08-07T05:52:01;94373.00;;;27.32;32.61
43217;BME280;71549;42.686;23.300;2023-08-07T05:54:01;94353.50;;;27.08;32.74
43217;BME280;71549;42.686;23.300;2023-08-07T05:56:02;94367.50;;;27.10;32.86
43217;BME280;71549;42.686;23.300;2023-08-07T05:58:02;94349.91;;;26.82;33.22
43217;BME280;71549;42.686;23.300;2023-08-07T06:00:03;94359.63;;;26.91;33.23
43217;BME280;71549;42.686;23.300;2023-08-07T06:02:04;94365.53;;;27.03;32.91
43217;BME280;71549;42.686;23.300;2023-08-07T06:04:04;94366.25;;;26.97;32.78
43217;BME280;71549;42.686;23.300;2023-08-07T06:06:04;94364.31;;;26.94;32.94
43217;BME280;71549;42.686;23.300;2023-08-07T06:08:05;94360.84;;;27.00;32.98
43217;BME280;71549;42.686;23.300;2023-08-07T06:10:06;94355.41;;;26.97;33.08
43217;BME280;71549;42.686;23.300;2023-08-07T06:12:07;94356.97;;;27.05;32.83
43217;BME280;71549;42.686;23.300;2023-08-07T06:14:07;94344.53;;;26.90;33.05
43217;BME280;71549;42.686;23.300;2023-08-07T06:16:08;94320.66;;;26.51;33.54
43217;BME280;71549;42.686;23.300;2023-08-07T06:18:08;94332.69;;;26.53;33.50
43217;BME280;71549;42.686;23.300;2023-08-07T06:20:09;94356.13;;;26.79;33.40
43217;BME280;71549;42.686;23.300;2023-08-07T06:22:11;94355.84;;;27.06;33.79
43217;BME280;71549;42.686;23.300;2023-08-07T06:24:11;94345.75;;;27.17;33.27
43217;BME280;71549;42.686;23.300;2023-08-07T06:26:13;94355.94;;;27.42;33.09
43217;BME280;71549;42.686;23.300;2023-08-07T06:28:13;94349.75;;;27.45;33.00
43217;BME280;71549;42.686;23.300;2023-08-07T06:30:14;94325.28;;;27.31;32.58
43217;BME280;71549;42.686;23.300;2023-08-07T06:32:14;94342.38;;;27.45;32.56
43217;BME280;71549;42.686;23.300;2023-08-07T06:34:15;94350.94;;;27.55;32.50
43217;BME280;71549;42.686;23.300;2023-08-07T06:36:15;94356.78;;;27.57;32.39
43217;BME280;71549;42.686;23.300;2023-08-07T06:38:15;94355.59;;;27.58;32.39
43217;BME280;71549;42.686;23.300;2023-08-07T06:40:16;94345.88;;;27.50;32.12
43217;BME280;71549;42.686;23.300;2023-08-07T06:42:17;94327.63;;;27.43;32.05
43217;BME280;71549;42.686;23.300;2023-08-07T06:44:17;94307.78;;;27.32;31.26
43217;BME280;71549;42.686;23.300;2023-08-07T06:46:17;94356.00;;;27.63;31.38
43217;BME280;71549;42.686;23.300;2023-08-07T06:48:18;94312.06;;;27.33;31.40
43217;BME280;71549;42.686;23.300;2023-08-07T06:50:19;94360.69;;;27.67;31.17
43217;BME280;71549;42.686;23.300;2023-08-07T06:52:19;94364.94;;;27.68;30.91
43217;BME280;71549;42.686;23.300;2023-08-07T06:54:20;94360.69;;;27.67;30.34
43217;BME280;71549;42.686;23.300;2023-08-07T06:56:20;94363.41;;;27.67;30.38
43217;BME280;71549;42.686;23.300;2023-08-07T06:58:21;94300.03;;;27.27;30.13
43217;BME280;71549;42.686;23.300;2023-08-07T07:00:21;94350.56;;;27.67;30.08
43217;BME280;71549;42.686;23.300;2023-08-07T07:02:22;94328.03;;;27.49;29.62
43217;BME280;71549;42.686;23.300;2023-08-07T07:04:22;94361.06;;;27.69;29.75
43217;BME280;71549;42.686;23.300;2023-08-07T07:06:23;94283.28;;;27.17;29.98
43217;BME280;71549;42.686;23.300;2023-08-07T07:08:26;94364.97;;;27.71;29.61
43217;BME280;71549;42.686;23.300;2023-08-07T07:10:26;94349.78;;;27.59;29.77
43217;BME280;71549;42.686;23.300;2023-08-07T07:12:27;94352.91;;;27.72;29.44
43217;BME280;71549;42.686;23.300;2023-08-07T07:14:28;94351.34;;;27.68;29.10
43217;BME280;71549;42.686;23.300;2023-08-07T07:16:28;94362.63;;;27.73;28.83
43217;BME280;71549;42.686;23.300;2023-08-07T07:18:28;94357.19;;;27.73;29.13
43217;BME280;71549;42.686;23.300;2023-08-07T07:20:29;94346.31;;;27.73;28.97
43217;BME280;71549;42.686;23.300;2023-08-07T07:22:29;94310.56;;;27.53;28.97
43217;BME280;71549;42.686;23.300;2023-08-07T07:24:30;94326.88;;;27.53;28.76
43217;BME280;71549;42.686;23.300;2023-08-07T07:26:30;94340.88;;;27.62;28.94
43217;BME280;71549;42.686;23.300;2023-08-07T07:28:31;94327.25;;;27.59;29.04
43217;BME280;71549;42.686;23.300;2023-08-07T07:30:32;94326.88;;;27.60;29.03
43217;BME280;71549;42.686;23.300;2023-08-07T07:32:33;94339.72;;;27.71;28.43
43217;BME280;71549;42.686;23.300;2023-08-07T07:34:33;94347.06;;;27.74;28.29
43217;BME280;71549;42.686;23.300;2023-08-07T07:36:34;94335.81;;;27.75;28.41
43217;BME280;71549;42.686;23.300;2023-08-07T07:38:34;94323.78;;;27.69;28.20
43217;BME280;71549;42.686;23.300;2023-08-07T07:40:35;94300.44;;;27.54;28.54
43217;BME280;71549;42.686;23.300;2023-08-07T07:42:35;94331.16;;;27.72;28.26
43217;BME280;71549;42.686;23.300;2023-08-07T07:44:36;94323.00;;;27.69;28.36
43217;BME280;71549;42.686;23.300;2023-08-07T07:46:36;94334.25;;;27.74;28.36
43217;BME280;71549;42.686;23.300;2023-08-07T07:48:37;94347.09;;;27.77;28.18
43217;BME280;71549;42.686;23.300;2023-08-07T07:50:38;94346.31;;;27.73;28.21
43217;BME280;71549;42.686;23.300;2023-08-07T07:52:39;94340.47;;;27.68;28.62
43217;BME280;71549;42.686;23.300;2023-08-07T07:54:39;94338.16;;;27.77;28.28
43217;BME280;71549;42.686;23.300;2023-08-07T07:56:40;94343.19;;;27.71;28.19
43217;BME280;71549;42.686;23.300;2023-08-07T07:58:40;94343.59;;;27.77;28.21
43217;BME280;71549;42.686;23.300;2023-08-07T08:00:41;94338.56;;;27.79;28.34
43217;BME280;71549;42.686;23.300;2023-08-07T08:02:42;94261.63;;;27.28;28.05
43217;BME280;71549;42.686;23.300;2023-08-07T08:04:43;94322.22;;;27.75;27.98
43217;BME280;71549;42.686;23.300;2023-08-07T08:06:43;94331.53;;;27.78;28.27
43217;BME280;71549;42.686;23.300;2023-08-07T08:08:44;94326.91;;;27.75;27.99
43217;BME280;71549;42.686;23.300;2023-08-07T08:10:46;94329.22;;;27.80;28.04
43217;BME280;71549;42.686;23.300;2023-08-07T08:12:48;94330.41;;;27.79;28.08
43217;BME280;71549;42.686;23.300;2023-08-07T08:14:48;94340.88;;;27.80;27.90
43217;BME280;71549;42.686;23.300;2023-08-07T08:16:48;94335.41;;;27.80;27.81
43217;BME280;71549;42.686;23.300;2023-08-07T08:18:50;94332.69;;;27.80;28.25
43217;BME280;71549;42.686;23.300;2023-08-07T08:20:50;94332.69;;;27.80;27.74
43217;BME280;71549;42.686;23.300;2023-08-07T08:22:50;94329.97;;;27.80;28.02
43217;BME280;71549;42.686;23.300;2023-08-07T08:24:51;94322.22;;;27.79;27.78
43217;BME280;71549;42.686;23.300;2023-08-07T08:26:51;94324.53;;;27.80;27.29
43217;BME280;71549;42.686;23.300;2023-08-07T08:28:52;94326.13;;;27.81;28.02
43217;BME280;71549;42.686;23.300;2023-08-07T08:30:52;94329.59;;;27.82;27.97
43217;BME280;71549;42.686;23.300;2023-08-07T08:32:53;94307.88;;;27.75;27.65
43217;BME280;71549;42.686;23.300;2023-08-07T08:34:53;94312.13;;;27.76;27.92
43217;BME280;71549;42.686;23.300;2023-08-07T08:36:54;94315.63;;;27.83;27.73
43217;BME280;71549;42.686;23.300;2023-08-07T08:38:54;94237.16;;;27.35;27.72
43217;BME280;71549;42.686;23.300;2023-08-07T08:40:55;94306.69;;;27.87;27.82
43217;BME280;71549;42.686;23.300;2023-08-07T08:42:56;94306.69;;;27.83;27.56
43217;BME280;71549;42.686;23.300;2023-08-07T08:45:00;94303.19;;;27.79;27.62
43217;BME280;71549;42.686;23.300;2023-08-07T08:47:02;94316.44;;;27.88;27.33
43217;BME280;71549;42.686;23.300;2023-08-07T08:49:04;94270.94;;;27.59;27.21
43217;BME280;71549;42.686;23.300;2023-08-07T08:51:06;94310.56;;;27.85;27.67
43217;BME280;71549;42.686;23.300;2023-08-07T08:53:08;94314.88;;;27.87;27.66
43217;BME280;71549;42.686;23.300;2023-08-07T08:55:10;94304.78;;;27.87;27.56
43217;BME280;71549;42.686;23.300;2023-08-07T08:57:12;94292.69;;;27.77;27.63
43217;BME280;71549;42.686;23.300;2023-08-07T08:59:13;94305.94;;;27.90;26.76
43217;BME280;71549;42.686;23.300;2023-08-07T09:01:13;94295.44;;;27.88;27.16
43217;BME280;71549;42.686;23.300;2023-08-07T09:03:15;94279.50;;;27.76;27.09
43217;BME280;71549;42.686;23.300;2023-08-07T09:05:16;94294.25;;;27.78;26.78
43217;BME280;71549;42.686;23.300;2023-08-07T09:07:19;94286.88;;;27.75;27.02
43217;BME280;71549;42.686;23.300;2023-08-07T09:09:22;94311.75;;;27.88;27.29
43217;BME280;71549;42.686;23.300;2023-08-07T09:11:24;94304.38;;;27.89;27.10
43217;BME280;71549;42.686;23.300;2023-08-07T09:13:26;94306.72;;;27.90;27.49
43217;BME280;71549;42.686;23.300;2023-08-07T09:15:29;94308.66;;;27.90;27.04
43217;BME280;71549;42.686;23.300;2023-08-07T09:17:33;94311.38;;;27.90;27.03
43217;BME280;71549;42.686;23.300;2023-08-07T09:19:35;94300.13;;;27.88;26.85
43217;BME280;71549;42.686;23.300;2023-08-07T09:21:35;94297.00;;;27.89;27.48
43217;BME280;71549;42.686;23.300;2023-08-07T09:23:36;94261.25;;;27.69;27.47
43217;BME280;71549;42.686;23.300;2023-08-07T09:25:36;94278.34;;;27.88;27.04
43217;BME280;71549;42.686;23.300;2023-08-07T09:27:37;94272.16;;;27.87;27.24
43217;BME280;71549;42.686;23.300;2023-08-07T09:29:40;94264.72;;;27.84;27.17
43217;BME280;71549;42.686;23.300;2023-08-07T09:31:43;94262.00;;;27.84;27.18
43217;BME280;71549;42.686;23.300;2023-08-07T09:33:47;94270.97;;;27.95;26.82
43217;BME280;71549;42.686;23.300;2023-08-07T09:35:51;94232.88;;;27.59;26.79
43217;BME280;71549;42.686;23.300;2023-08-07T09:37:53;94286.09;;;27.96;26.69
43217;BME280;71549;42.686;23.300;2023-08-07T09:39:53;94284.56;;;27.95;27.20
43217;BME280;71549;42.686;23.300;2023-08-07T09:41:54;94270.94;;;27.84;27.04
43217;BME280;71549;42.686;23.300;2023-08-07T09:43:55;94274.06;;;27.94;27.06
43217;BME280;71549;42.686;23.300;2023-08-07T09:46:07;94276.41;;;27.95;27.28
43217;BME280;71549;42.686;23.300;2023-08-07T09:48:08;94285.72;;;27.98;26.94
43217;BME280;71549;42.686;23.300;2023-08-07T09:50:15;94285.72;;;27.98;26.81
43217;BME280;71549;42.686;23.300;2023-08-07T09:52:16;94286.09;;;27.96;27.08
43217;BME280;71549;42.686;23.300;2023-08-07T09:54:16;94289.59;;;27.97;26.70
43217;BME280;71549;42.686;23.300;2023-08-07T09:56:17;94282.22;;;27.94;26.93
43217;BME280;71549;42.686;23.300;2023-08-07T09:58:17;94282.25;;;27.97;26.83
43217;BME280;71549;42.686;23.300;2023-08-07T10:00:18;94285.72;;;27.98;26.78
43217;BME280;71549;42.686;23.300;2023-08-07T10:02:21;94289.59;;;28.00;26.67
43217;BME280;71549;42.686;23.300;2023-08-07T10:04:22;94277.94;;;28.00;26.75
43217;BME280;71549;42.686;23.300;2023-08-07T10:06:23;94285.72;;;28.01;26.49
43217;BME280;71549;42.686;23.300;2023-08-07T10:08:24;94277.94;;;28.00;26.74
43217;BME280;71549;42.686;23.300;2023-08-07T10:10:25;94267.88;;;27.93;26.44
43217;BME280;71549;42.686;23.300;2023-08-07T10:12:26;94281.81;;;28.02;26.92
43217;BME280;71549;42.686;23.300;2023-08-07T10:14:28;94282.97;;;28.05;25.97
43217;BME280;71549;42.686;23.300;2023-08-07T10:16:29;94281.06;;;28.05;26.16
43217;BME280;71549;42.686;23.300;2023-08-07T10:18:30;94251.53;;;27.93;26.07
43217;BME280;71549;42.686;23.300;2023-08-07T10:20:31;94243.72;;;27.84;26.44
43217;BME280;71549;42.686;23.300;2023-08-07T10:22:32;94275.59;;;28.09;26.51
43217;BME280;71549;42.686;23.300;2023-08-07T10:24:38;94283.00;;;28.09;26.47
43217;BME280;71549;42.686;23.300;2023-08-07T10:26:44;94277.94;;;28.11;26.11
43217;BME280;71549;42.686;23.300;2023-08-07T10:28:46;94276.38;;;28.10;26.23
43217;BME280;71549;42.686;23.300;2023-08-07T10:30:48;94259.69;;;27.97;26.41
43217;BME280;71549;42.686;23.300;2023-08-07T10:32:50;94243.34;;;27.86;26.21
43217;BME280;71549;42.686;23.300;2023-08-07T10:34:52;94277.94;;;28.11;26.38
43217;BME280;71549;42.686;23.300;2023-08-07T10:36:52;94271.34;;;28.12;26.16